N2RF KEGE-KSLC
Flight info
| Callsign | N2RF |
|---|---|
| Flight time | N/A |
| Altitude | 43000 |
| Route | BEVVR1 SPRKT DCT EKR PITTT1 |
| Aircraft | C700/M-SBDGHM1RWXY/LB2 |
Departure
| Time | 2026-04-21 03:25 |
|---|---|
| Airport | Eagle County Regional Airport (KEGE) |
Arrival
| Time | N/A |
|---|---|
| Airport | Salt Lake City International Airport (KSLC) |
| Time | Latitude | Longitude | Altitude | Speed | Heading |
|---|---|---|---|---|---|
| 2026-04-21 02:59 | 39.64109 | -106.91362 | 6511 ft | 0 kts | 8° |
| 2026-04-21 03:21 | 39.64121 | -106.91351 | 6512 ft | 5 kts | 50° |
| 2026-04-21 03:21 | 39.64142 | -106.91282 | 6514 ft | 10 kts | 64° |
| 2026-04-21 03:21 | 39.64188 | -106.91226 | 6516 ft | 11 kts | 37° |
| 2026-04-21 03:21 | 39.64216 | -106.91129 | 6518 ft | 12 kts | 85° |
| 2026-04-21 03:22 | 39.64230 | -106.91014 | 6521 ft | 13 kts | 79° |
| 2026-04-21 03:22 | 39.64244 | -106.90901 | 6524 ft | 12 kts | 80° |
| 2026-04-21 03:22 | 39.64254 | -106.90800 | 6530 ft | 12 kts | 82° |
| 2026-04-21 03:22 | 39.64265 | -106.90694 | 6529 ft | 13 kts | 81° |
| 2026-04-21 03:23 | 39.64280 | -106.90571 | 6532 ft | 13 kts | 83° |
| 2026-04-21 03:23 | 39.64292 | -106.90454 | 6535 ft | 13 kts | 83° |
| 2026-04-21 03:23 | 39.64305 | -106.90338 | 6539 ft | 13 kts | 81° |
| 2026-04-21 03:23 | 39.64316 | -106.90227 | 6542 ft | 12 kts | 79° |
| 2026-04-21 03:24 | 39.64330 | -106.90121 | 6545 ft | 13 kts | 79° |
| 2026-04-21 03:24 | 39.64351 | -106.90023 | 6547 ft | 0 kts | 53° |
| 2026-04-21 03:24 | 39.64361 | -106.90015 | 6548 ft | 6 kts | 27° |
| 2026-04-21 03:24 | 39.64437 | -106.90043 | 6547 ft | 9 kts | 285° |
| 2026-04-21 03:25 | 39.64435 | -106.90160 | 6543 ft | 19 kts | 262° |
| 2026-04-21 03:25 | 39.64381 | -106.90654 | 6533 ft | 100 kts | 262° |
| 2026-04-21 03:25 | 39.64239 | -106.91872 | 6707 ft | 161 kts | 259° |
| 2026-04-21 03:25 | 39.63953 | -106.93442 | 7576 ft | 178 kts | 242° |
| 2026-04-21 03:26 | 39.63041 | -106.94463 | 8827 ft | 197 kts | 203° |
| 2026-04-21 03:26 | 39.61588 | -106.94923 | 9491 ft | 227 kts | 193° |
| 2026-04-21 03:26 | 39.60012 | -106.95544 | 10510 ft | 251 kts | 205° |
| 2026-04-21 03:26 | 39.58447 | -106.96830 | 11182 ft | 293 kts | 223° |
| 2026-04-21 03:27 | 39.57378 | -106.99306 | 11740 ft | 322 kts | 262° |
| 2026-04-21 03:27 | 39.57325 | -107.02060 | 13772 ft | 294 kts | 275° |
| 2026-04-21 03:27 | 39.57720 | -107.04588 | 15623 ft | 280 kts | 288° |
| 2026-04-21 03:27 | 39.58542 | -107.06836 | 17217 ft | 278 kts | 301° |
| 2026-04-21 03:28 | 39.59830 | -107.08762 | 18422 ft | 287 kts | 317° |
| 2026-04-21 03:28 | 39.61523 | -107.10176 | 19548 ft | 294 kts | 334° |
| 2026-04-21 03:28 | 39.63514 | -107.10878 | 20652 ft | 302 kts | 352° |
| 2026-04-21 03:28 | 39.65627 | -107.10729 | 21700 ft | 310 kts | 9° |
| 2026-04-21 03:29 | 39.67754 | -107.10143 | 22720 ft | 314 kts | 5° |
| 2026-04-21 03:29 | 39.69935 | -107.10158 | 23770 ft | 315 kts | 351° |
| 2026-04-21 03:29 | 39.72069 | -107.10814 | 24667 ft | 316 kts | 338° |
| 2026-04-21 03:29 | 39.74075 | -107.12097 | 25208 ft | 333 kts | 326° |
| 2026-04-21 03:30 | 39.75875 | -107.14099 | 25371 ft | 360 kts | 312° |
| 2026-04-21 03:30 | 39.77434 | -107.16841 | 25639 ft | 382 kts | 304° |
| 2026-04-21 03:30 | 39.78894 | -107.19683 | 26564 ft | 384 kts | 304° |
| 2026-04-21 03:30 | 39.80395 | -107.22580 | 27401 ft | 389 kts | 304° |
| 2026-04-21 03:31 | 39.81924 | -107.25502 | 28247 ft | 393 kts | 304° |
| 2026-04-21 03:31 | 39.83469 | -107.28463 | 29094 ft | 397 kts | 304° |
| 2026-04-21 03:31 | 39.85023 | -107.31460 | 29966 ft | 401 kts | 304° |
| 2026-04-21 03:31 | 39.86590 | -107.34486 | 30685 ft | 406 kts | 305° |
| 2026-04-21 03:32 | 39.88184 | -107.37557 | 31362 ft | 410 kts | 305° |
| 2026-04-21 03:32 | 39.89787 | -107.40647 | 32029 ft | 414 kts | 305° |
| 2026-04-21 03:32 | 39.91408 | -107.43780 | 32645 ft | 419 kts | 305° |
| 2026-04-21 03:32 | 39.93046 | -107.46950 | 33255 ft | 423 kts | 306° |
| 2026-04-21 03:33 | 39.94685 | -107.50126 | 34091 ft | 421 kts | 306° |
| 2026-04-21 03:33 | 39.96185 | -107.53408 | 34776 ft | 422 kts | 298° |
| 2026-04-21 03:33 | 39.97314 | -107.56967 | 35056 ft | 434 kts | 292° |
| 2026-04-21 03:33 | 39.98307 | -107.60760 | 35044 ft | 449 kts | 291° |
| 2026-04-21 03:34 | 39.99343 | -107.64666 | 35056 ft | 463 kts | 292° |
| 2026-04-21 03:34 | 40.00425 | -107.68674 | 35060 ft | 472 kts | 292° |
| 2026-04-21 03:34 | 40.02563 | -107.76711 | 35033 ft | 470 kts | 291° |
| 2026-04-21 03:35 | 40.03602 | -107.80648 | 34931 ft | 447 kts | 291° |
| 2026-04-21 03:35 | 40.04614 | -107.84460 | 33828 ft | 445 kts | 291° |
| 2026-04-21 03:35 | 40.05635 | -107.88286 | 32393 ft | 448 kts | 290° |
| 2026-04-21 03:35 | 40.06487 | -107.92145 | 32164 ft | 441 kts | 284° |
| 2026-04-21 03:36 | 40.06920 | -107.96186 | 32163 ft | 460 kts | 276° |
| 2026-04-21 03:36 | 40.07111 | -108.00440 | 32167 ft | 476 kts | 275° |
| 2026-04-21 03:36 | 40.07304 | -108.04719 | 32136 ft | 457 kts | 275° |
| 2026-04-21 03:36 | 40.07486 | -108.08734 | 31635 ft | 434 kts | 275° |
| 2026-04-21 03:37 | 40.07667 | -108.12663 | 30273 ft | 434 kts | 275° |
| 2026-04-21 03:37 | 40.07847 | -108.16613 | 28529 ft | 435 kts | 274° |
| 2026-04-21 03:37 | 40.08020 | -108.20584 | 26671 ft | 440 kts | 274° |
| 2026-04-21 03:37 | 40.08193 | -108.24539 | 24784 ft | 446 kts | 274° |
| 2026-04-21 03:38 | 40.08375 | -108.28663 | 22625 ft | 452 kts | 274° |
| 2026-04-21 03:38 | 40.08551 | -108.32725 | 20342 ft | 455 kts | 273° |
| 2026-04-21 03:38 | 40.08726 | -108.36839 | 19103 ft | 443 kts | 273° |
| 2026-04-21 03:38 | 40.08889 | -108.40680 | 18995 ft | 405 kts | 273° |
| 2026-04-21 03:39 | 40.09046 | -108.44387 | 18986 ft | 420 kts | 273° |
| 2026-04-21 03:39 | 40.09206 | -108.48204 | 18991 ft | 416 kts | 273° |
| 2026-04-21 03:39 | 40.09364 | -108.52011 | 18991 ft | 425 kts | 273° |
| 2026-04-21 03:39 | 40.09520 | -108.55788 | 18985 ft | 416 kts | 273° |
| 2026-04-21 03:40 | 40.09677 | -108.59605 | 18979 ft | 425 kts | 273° |
| 2026-04-21 03:40 | 40.09833 | -108.63446 | 18978 ft | 420 kts | 272° |
| 2026-04-21 03:40 | 40.09987 | -108.67278 | 18978 ft | 425 kts | 272° |
| 2026-04-21 03:40 | 40.10140 | -108.71110 | 18974 ft | 405 kts | 272° |
| 2026-04-21 03:41 | 40.10267 | -108.74276 | 18937 ft | 309 kts | 272° |
| 2026-04-21 03:41 | 40.10375 | -108.77036 | 18968 ft | 317 kts | 272° |
| 2026-04-21 03:41 | 40.10490 | -108.80012 | 18979 ft | 344 kts | 272° |
| 2026-04-21 03:41 | 40.10614 | -108.83241 | 18977 ft | 361 kts | 272° |
| 2026-04-21 03:42 | 40.10742 | -108.86529 | 18967 ft | 362 kts | 272° |
| 2026-04-21 03:42 | 40.10870 | -108.89810 | 18966 ft | 363 kts | 272° |
| 2026-04-21 03:42 | 40.10995 | -108.93097 | 18966 ft | 363 kts | 272° |
| 2026-04-21 03:42 | 40.11118 | -108.96396 | 18968 ft | 363 kts | 272° |
| 2026-04-21 03:43 | 40.11241 | -108.99687 | 18955 ft | 363 kts | 272° |
| 2026-04-21 03:43 | 40.11363 | -109.02937 | 18955 ft | 363 kts | 272° |
| 2026-04-21 03:43 | 40.11486 | -109.06275 | 18956 ft | 363 kts | 272° |
| 2026-04-21 03:43 | 40.11609 | -109.09596 | 18957 ft | 386 kts | 272° |
| 2026-04-21 03:44 | 40.11739 | -109.13237 | 18950 ft | 409 kts | 272° |
| 2026-04-21 03:44 | 40.11875 | -109.17015 | 18952 ft | 413 kts | 272° |
| 2026-04-21 03:44 | 40.12009 | -109.20727 | 18951 ft | 415 kts | 272° |
| 2026-04-21 03:44 | 40.12142 | -109.24493 | 18949 ft | 416 kts | 272° |
| 2026-04-21 03:45 | 40.12274 | -109.28272 | 18941 ft | 415 kts | 272° |
| 2026-04-21 03:45 | 40.12405 | -109.32043 | 18947 ft | 415 kts | 272° |
| 2026-04-21 03:45 | 40.12534 | -109.35804 | 18956 ft | 415 kts | 272° |
| 2026-04-21 03:45 | 40.12663 | -109.39567 | 18959 ft | 415 kts | 272° |
| 2026-04-21 03:46 | 40.12790 | -109.43335 | 18962 ft | 415 kts | 272° |
| 2026-04-21 03:46 | 40.12915 | -109.47098 | 18965 ft | 414 kts | 272° |
| 2026-04-21 03:46 | 40.13040 | -109.50864 | 18966 ft | 414 kts | 272° |
| 2026-04-21 03:46 | 40.13163 | -109.54627 | 18966 ft | 414 kts | 272° |
| 2026-04-21 03:47 | 40.13285 | -109.58385 | 18965 ft | 414 kts | 272° |
| 2026-04-21 03:47 | 40.13406 | -109.62153 | 18962 ft | 414 kts | 272° |
| 2026-04-21 03:47 | 40.13524 | -109.65860 | 18958 ft | 413 kts | 272° |
| 2026-04-21 03:47 | 40.13642 | -109.69614 | 18942 ft | 415 kts | 272° |
| 2026-04-21 03:48 | 40.13760 | -109.73389 | 18942 ft | 416 kts | 272° |
| 2026-04-21 03:48 | 40.13875 | -109.77163 | 18945 ft | 416 kts | 272° |
| 2026-04-21 03:48 | 40.13991 | -109.80936 | 18947 ft | 415 kts | 271° |
| 2026-04-21 03:48 | 40.14104 | -109.84704 | 18946 ft | 413 kts | 271° |
| 2026-04-21 03:49 | 40.14217 | -109.88472 | 18950 ft | 415 kts | 271° |
| 2026-04-21 03:49 | 40.14328 | -109.92232 | 18948 ft | 417 kts | 271° |
| 2026-04-21 03:49 | 40.14438 | -109.96026 | 18952 ft | 416 kts | 271° |
| 2026-04-21 03:49 | 40.14547 | -109.99796 | 18950 ft | 414 kts | 271° |
| 2026-04-21 03:50 | 40.14654 | -110.03557 | 18951 ft | 414 kts | 271° |
| 2026-04-21 03:50 | 40.14759 | -110.07276 | 18959 ft | 416 kts | 271° |
| 2026-04-21 03:50 | 40.14867 | -110.11104 | 18960 ft | 416 kts | 271° |
| 2026-04-21 03:50 | 40.14903 | -110.14870 | 18960 ft | 414 kts | 268° |
| 2026-04-21 03:51 | 40.14862 | -110.18642 | 18961 ft | 417 kts | 268° |
| 2026-04-21 03:51 | 40.14833 | -110.22385 | 18972 ft | 416 kts | 269° |